Time;durP1;ratioP1;P1;durP2;ratioP2;P2;SDS_P1;SDS_P2;PMS_P1;PMS_P2;Temp;Humidity;BMP_temperature;BMP_pressure;BME280_temperature;BME280_humidity;BME280_pressure;Samples;Min_cycle;Max_cycle;Signal;HPM_P1;HPM_P2
2023/01/16 00:01:45;;;;;;;8.33;2.70;;;;;;;;;;5116135;28;20234;-71
2023/01/16 00:04:11;;;;;;;8.67;3.07;;;;;;;;;;5116380;28;20626;-72
2023/01/16 00:06:38;;;;;;;9.53;2.93;;;;;;;;;;5115605;28;20176;-70
2023/01/16 00:09:05;;;;;;;3.67;2.27;;;;;;;;;;5115503;28;20619;-73
2023/01/16 00:11:31;;;;;;;5.10;2.17;;;;;;;;;;5115637;28;20180;-71
2023/01/16 00:13:58;;;;;;;3.57;1.80;;;;;;;;;;5115796;28;20173;-71
2023/01/16 00:16:24;;;;;;;6.30;1.67;;;;;;;;;;5115034;28;20196;-70
2023/01/16 00:18:49;;;;;;;6.07;2.13;;;;;;;;;;5113712;28;20571;-70
2023/01/16 00:21:16;;;;;;;4.53;2.30;;;;;;;;;;5113685;28;20200;-71
2023/01/16 00:23:41;;;;;;;5.40;1.67;;;;;;;;;;5114821;28;20247;-71
2023/01/16 00:26:09;;;;;;;5.13;2.10;;;;;;;;;;5114412;28;20584;-71
2023/01/16 00:28:37;;;;;;;6.17;1.97;;;;;;;;;;5115183;28;20699;-71
2023/01/16 00:31:03;;;;;;;5.00;1.63;;;;;;;;;;5119332;28;20178;-71
2023/01/16 00:33:29;;;;;;;5.57;2.43;;;;;;;;;;5117836;28;20184;-70
2023/01/16 00:35:55;;;;;;;6.67;2.40;;;;;;;;;;5117705;28;20184;-70
2023/01/16 00:38:20;;;;;;;6.37;2.07;;;;;;;;;;5119175;28;20288;-71
2023/01/16 00:40:46;;;;;;;6.67;2.10;;;;;;;;;;5117309;28;20200;-71
2023/01/16 00:43:12;;;;;;;5.63;2.67;;;;;;;;;;5119671;28;20172;-71
2023/01/16 00:45:39;;;;;;;4.07;1.70;;;;;;;;;;5119455;28;20176;-72
2023/01/16 00:48:06;;;;;;;6.90;2.20;;;;;;;;;;5118791;28;20216;-71
2023/01/16 00:50:31;;;;;;;5.20;1.80;;;;;;;;;;5117667;28;20180;-71
2023/01/16 00:52:57;;;;;;;4.57;2.20;;;;;;;;;;5121131;28;20188;-71
2023/01/16 00:55:24;;;;;;;5.87;1.87;;;;;;;;;;5118894;28;20185;-73
2023/01/16 00:57:50;;;;;;;4.00;2.23;;;;;;;;;;5117391;28;20192;-71
2023/01/16 01:00:19;;;;;;;8.50;2.00;;;;;;;;;;5117144;28;20208;-71
2023/01/16 01:02:45;;;;;;;6.87;2.20;;;;;;;;;;5118726;28;20184;-71
2023/01/16 01:05:11;;;;;;;6.80;2.13;;;;;;;;;;5118474;28;20200;-71
2023/01/16 01:07:37;;;;;;;6.27;2.20;;;;;;;;;;5117316;28;20200;-71
2023/01/16 01:10:03;;;;;;;5.80;2.50;;;;;;;;;;5118338;28;20196;-71
2023/01/16 01:12:29;;;;;;;5.63;2.20;;;;;;;;;;5119130;28;20551;-71
2023/01/16 01:14:55;;;;;;;7.20;2.67;;;;;;;;;;5118875;28;20172;-71
2023/01/16 01:17:21;;;;;;;6.33;2.93;;;;;;;;;;5118544;28;20169;-72
2023/01/16 01:19:47;;;;;;;6.67;2.90;;;;;;;;;;5116966;28;20617;-71
2023/01/16 01:22:15;;;;;;;5.37;2.83;;;;;;;;;;5118579;28;20204;-71
2023/01/16 01:24:41;;;;;;;5.57;2.70;;;;;;;;;;5118306;27;20221;-72
2023/01/16 01:27:07;;;;;;;5.63;2.40;;;;;;;;;;5117264;28;20181;-71
2023/01/16 01:29:33;;;;;;;5.57;2.40;;;;;;;;;;5118207;28;20269;-72
2023/01/16 01:32:02;;;;;;;6.60;2.50;;;;;;;;;;5118138;28;20184;-68
2023/01/16 01:34:32;;;;;;;7.17;2.80;;;;;;;;;;5118217;28;20172;-70
2023/01/16 01:36:58;;;;;;;6.40;2.50;;;;;;;;;;5118577;28;20175;-70
2023/01/16 01:39:24;;;;;;;5.33;2.43;;;;;;;;;;5116562;28;20196;-70
2023/01/16 01:41:50;;;;;;;5.60;2.37;;;;;;;;;;5117362;28;20204;-70
2023/01/16 01:44:35;;;;;;;4.10;2.00;;;;;;;;;;5119663;28;20180;-71
2023/01/16 01:47:01;;;;;;;4.17;2.30;;;;;;;;;;5116672;28;20184;-70
2023/01/16 01:49:30;;;;;;;6.90;2.47;;;;;;;;;;5118381;28;20196;-70
2023/01/16 01:51:58;;;;;;;6.13;2.20;;;;;;;;;;5118108;28;20173;-71
2023/01/16 01:54:27;;;;;;;8.70;2.80;;;;;;;;;;5117054;28;20249;-71
2023/01/16 01:56:59;;;;;;;7.63;2.37;;;;;;;;;;5118411;28;20199;-71
2023/01/16 01:59:27;;;;;;;10.17;2.73;;;;;;;;;;5118135;28;20642;-72
2023/01/16 02:01:54;;;;;;;7.73;2.23;;;;;;;;;;5117742;28;20298;-71
2023/01/16 02:04:23;;;;;;;6.03;2.37;;;;;;;;;;5117952;28;20300;-71
2023/01/16 02:06:54;;;;;;;6.73;2.57;;;;;;;;;;5117959;28;20546;-73
2023/01/16 02:09:22;;;;;;;6.67;2.70;;;;;;;;;;5117855;28;20666;-71
2023/01/16 02:11:53;;;;;;;7.57;3.03;;;;;;;;;;5115952;28;20226;-71
2023/01/16 02:14:20;;;;;;;9.30;3.33;;;;;;;;;;5125875;28;20173;-73
2023/01/16 02:19:49;;;;;;;5.17;2.80;;;;;;;;;;5126634;28;20299;-71
2023/01/16 02:22:21;;;;;;;5.87;2.27;;;;;;;;;;5117785;28;20577;-71
2023/01/16 02:24:47;;;;;;;3.97;2.10;;;;;;;;;;5117803;28;20229;-71
2023/01/16 02:27:20;;;;;;;9.13;2.53;;;;;;;;;;5116430;28;20267;-71
2023/01/16 02:30:03;;;;;;;7.20;2.37;;;;;;;;;;5116917;28;20291;-71
2023/01/16 02:32:32;;;;;;;5.10;2.37;;;;;;;;;;5115165;28;20570;-72
2023/01/16 02:34:58;;;;;;;7.23;2.43;;;;;;;;;;5117721;28;20257;-73
2023/01/16 02:37:24;;;;;;;5.90;2.30;;;;;;;;;;5116515;28;20208;-70
2023/01/16 02:39:59;;;;;;;5.20;2.23;;;;;;;;;;5117281;28;20566;-71
2023/01/16 02:42:58;;;;;;;5.30;2.30;;;;;;;;;;5117065;28;20180;-70
2023/01/16 02:45:26;;;;;;;8.27;2.10;;;;;;;;;;5093906;28;20215;-70
2023/01/16 02:48:07;;;;;;;7.97;2.70;;;;;;;;;;5116415;28;20173;-73
2023/01/16 02:50:38;;;;;;;5.37;2.00;;;;;;;;;;5115269;28;20616;-71
2023/01/16 02:53:31;;;;;;;5.67;2.43;;;;;;;;;;5116534;28;20534;-71
2023/01/16 02:56:02;;;;;;;3.60;1.80;;;;;;;;;;5119569;28;20227;-70
2023/01/16 02:58:29;;;;;;;4.20;2.20;;;;;;;;;;5119428;28;20669;-71
2023/01/16 03:00:57;;;;;;;5.47;1.90;;;;;;;;;;5117475;28;20215;-72
2023/01/16 03:03:40;;;;;;;3.53;1.90;;;;;;;;;;5118231;28;20227;-71
2023/01/16 03:06:26;;;;;;;9.77;1.90;;;;;;;;;;5120846;28;20173;-71
2023/01/16 03:08:55;;;;;;;4.13;2.03;;;;;;;;;;5122867;28;20192;-71
2023/01/16 03:11:23;;;;;;;6.77;1.83;;;;;;;;;;5119411;28;20172;-71
2023/01/16 03:14:04;;;;;;;4.83;1.70;;;;;;;;;;5117081;28;20177;-73
2023/01/16 03:16:37;;;;;;;4.70;1.77;;;;;;;;;;5118997;28;20180;-73
2023/01/16 03:19:16;;;;;;;3.53;1.67;;;;;;;;;;5125764;28;20223;-70
2023/01/16 03:21:54;;;;;;;5.47;1.97;;;;;;;;;;5118111;28;20645;-71
2023/01/16 03:24:35;;;;;;;4.10;1.60;;;;;;;;;;5116426;28;20255;-71
2023/01/16 03:27:12;;;;;;;5.77;1.80;;;;;;;;;;5116118;28;20153;-70
2023/01/16 03:29:51;;;;;;;5.33;1.90;;;;;;;;;;5115645;28;20226;-70
2023/01/16 03:32:26;;;;;;;4.97;2.10;;;;;;;;;;5115517;28;20172;-70
2023/01/16 03:34:58;;;;;;;9.70;2.90;;;;;;;;;;5115685;28;20182;-73
2023/01/16 03:37:30;;;;;;;7.30;3.00;;;;;;;;;;5115039;28;20201;-72
2023/01/16 03:40:02;;;;;;;5.97;3.23;;;;;;;;;;5114693;28;20669;-72
2023/01/16 03:42:48;;;;;;;6.80;2.60;;;;;;;;;;5113485;28;20304;-73
2023/01/16 03:45:18;;;;;;;8.13;2.57;;;;;;;;;;5113294;28;20172;-73
2023/01/16 03:47:48;;;;;;;7.00;2.20;;;;;;;;;;5114633;28;20180;-73
2023/01/16 03:50:15;;;;;;;4.97;1.80;;;;;;;;;;5114893;28;20710;-73
2023/01/16 03:52:44;;;;;;;9.90;2.10;;;;;;;;;;5114926;28;20172;-73
2023/01/16 03:55:19;;;;;;;4.30;2.17;;;;;;;;;;5115009;28;20180;-72
2023/01/16 03:57:47;;;;;;;7.60;1.80;;;;;;;;;;5114876;28;20660;-72
2023/01/16 04:00:13;;;;;;;5.70;2.07;;;;;;;;;;5113209;28;20211;-72
2023/01/16 04:02:54;;;;;;;3.30;1.87;;;;;;;;;;5114483;28;20222;-71
2023/01/16 04:05:23;;;;;;;3.43;1.40;;;;;;;;;;5114861;28;20638;-72
2023/01/16 04:08:01;;;;;;;1.93;1.23;;;;;;;;;;5113450;28;20202;-72
2023/01/16 04:10:32;;;;;;;3.23;1.53;;;;;;;;;;5114466;28;20203;-73
2023/01/16 04:13:01;;;;;;;5.87;1.63;;;;;;;;;;5114254;28;20260;-73
2023/01/16 04:15:30;;;;;;;2.93;1.60;;;;;;;;;;5117774;28;20557;-72
2023/01/16 04:17:56;;;;;;;2.67;1.40;;;;;;;;;;5112833;28;20271;-73
2023/01/16 04:20:22;;;;;;;4.90;1.60;;;;;;;;;;5114198;28;20211;-73
2023/01/16 04:22:49;;;;;;;5.50;1.90;;;;;;;;;;5114371;28;20183;-73
2023/01/16 04:25:17;;;;;;;2.50;1.57;;;;;;;;;;5114536;28;20173;-72
2023/01/16 04:27:43;;;;;;;2.17;1.40;;;;;;;;;;5113060;28;20173;-72
2023/01/16 04:30:09;;;;;;;5.07;1.50;;;;;;;;;;5113934;28;20689;-72
2023/01/16 04:32:35;;;;;;;1.93;1.13;;;;;;;;;;5113182;28;20321;-72
2023/01/16 04:35:01;;;;;;;4.80;1.30;;;;;;;;;;5114172;28;20199;-73
2023/01/16 04:37:27;;;;;;;2.20;1.30;;;;;;;;;;5114433;28;20543;-72
2023/01/16 04:39:53;;;;;;;2.47;1.37;;;;;;;;;;5113261;28;20746;-72
2023/01/16 04:42:19;;;;;;;6.80;1.63;;;;;;;;;;5113498;28;20295;-72
2023/01/16 04:44:45;;;;;;;3.67;2.83;;;;;;;;;;5114186;28;20172;-72
2023/01/16 04:47:11;;;;;;;5.00;2.50;;;;;;;;;;5115462;28;20172;-72
2023/01/16 04:49:37;;;;;;;4.40;3.13;;;;;;;;;;5114659;28;20562;-71
2023/01/16 04:52:03;;;;;;;5.67;3.23;;;;;;;;;;5113007;28;20180;-71
2023/01/16 04:54:29;;;;;;;10.00;7.47;;;;;;;;;;5113400;28;20212;-72
2023/01/16 04:56:55;;;;;;;8.00;5.40;;;;;;;;;;5115126;28;20185;-71
2023/01/16 04:59:21;;;;;;;4.37;2.70;;;;;;;;;;5115057;28;20200;-71
2023/01/16 05:01:47;;;;;;;3.83;2.20;;;;;;;;;;5115684;28;20287;-71
2023/01/16 05:04:14;;;;;;;3.27;1.80;;;;;;;;;;5118824;28;20169;-71
2023/01/16 05:06:39;;;;;;;2.20;1.93;;;;;;;;;;5114482;28;20181;-71
2023/01/16 05:09:06;;;;;;;2.93;1.83;;;;;;;;;;5114528;28;20197;-72
2023/01/16 05:11:32;;;;;;;4.13;2.10;;;;;;;;;;5114347;28;20183;-71
2023/01/16 05:13:58;;;;;;;6.37;2.30;;;;;;;;;;5115513;28;20222;-72
2023/01/16 05:16:24;;;;;;;3.70;2.23;;;;;;;;;;5118729;28;20174;-71
2023/01/16 05:18:50;;;;;;;4.27;2.27;;;;;;;;;;5117968;28;20207;-71
2023/01/16 05:21:16;;;;;;;8.80;2.80;;;;;;;;;;5117630;28;20204;-71
2023/01/16 05:23:42;;;;;;;5.70;3.07;;;;;;;;;;5116711;28;20267;-72
2023/01/16 05:26:08;;;;;;;6.33;2.97;;;;;;;;;;5117669;28;20168;-71
2023/01/16 05:28:35;;;;;;;5.50;2.80;;;;;;;;;;5118238;28;20577;-71
2023/01/16 05:31:02;;;;;;;6.47;2.20;;;;;;;;;;5117877;28;20160;-71
2023/01/16 05:33:28;;;;;;;4.97;2.20;;;;;;;;;;5117679;28;20172;-72
2023/01/16 05:35:54;;;;;;;2.53;1.90;;;;;;;;;;5118081;28;20241;-71
2023/01/16 05:38:21;;;;;;;5.57;2.50;;;;;;;;;;5115912;28;20670;-71
2023/01/16 05:40:47;;;;;;;4.23;2.10;;;;;;;;;;5115851;28;20208;-72
2023/01/16 05:43:13;;;;;;;3.67;1.63;;;;;;;;;;5115956;28;20177;-71
2023/01/16 05:45:39;;;;;;;4.50;1.60;;;;;;;;;;5115992;28;20176;-71
2023/01/16 05:48:05;;;;;;;2.90;1.60;;;;;;;;;;5117565;28;20176;-72
2023/01/16 05:50:32;;;;;;;4.50;1.77;;;;;;;;;;5117545;28;20235;-72
2023/01/16 05:52:58;;;;;;;5.77;1.70;;;;;;;;;;5117557;28;20210;-72
2023/01/16 05:55:24;;;;;;;5.43;1.47;;;;;;;;;;5118299;28;20180;-73
2023/01/16 05:57:50;;;;;;;1.77;1.50;;;;;;;;;;5117391;28;20179;-72
2023/01/16 06:00:17;;;;;;;7.10;1.80;;;;;;;;;;5116954;28;20196;-72
2023/01/16 06:02:43;;;;;;;5.70;1.70;;;;;;;;;;5116775;28;20169;-72
2023/01/16 06:05:09;;;;;;;3.80;1.80;;;;;;;;;;5114895;28;20211;-72
2023/01/16 06:07:35;;;;;;;2.73;1.40;;;;;;;;;;5116330;28;20199;-72
2023/01/16 06:10:01;;;;;;;4.40;1.60;;;;;;;;;;5116172;28;20192;-72
2023/01/16 06:12:27;;;;;;;3.57;1.50;;;;;;;;;;5116866;28;20275;-72
2023/01/16 06:14:53;;;;;;;5.27;2.00;;;;;;;;;;5118591;28;20621;-71
2023/01/16 06:17:19;;;;;;;1.90;1.40;;;;;;;;;;5121540;28;20173;-72
2023/01/16 06:19:46;;;;;;;1.87;1.33;;;;;;;;;;5120879;28;20196;-72
2023/01/16 06:22:12;;;;;;;3.60;1.60;;;;;;;;;;5124819;28;20196;-69
2023/01/16 06:24:39;;;;;;;8.93;5.97;;;;;;;;;;5121296;28;20179;-72
2023/01/16 06:27:05;;;;;;;5.93;3.97;;;;;;;;;;5120221;28;20168;-71
2023/01/16 06:29:31;;;;;;;6.70;4.63;;;;;;;;;;5116712;28;20204;-72
2023/01/16 06:31:57;;;;;;;5.80;3.60;;;;;;;;;;5115404;28;20180;-72
2023/01/16 06:34:23;;;;;;;10.70;6.17;;;;;;;;;;5114700;28;20191;-72
2023/01/16 06:36:49;;;;;;;6.30;4.07;;;;;;;;;;5116516;28;20180;-72
2023/01/16 06:39:15;;;;;;;5.67;3.13;;;;;;;;;;5114687;28;20583;-72
2023/01/16 06:41:41;;;;;;;4.80;2.73;;;;;;;;;;5116317;28;20245;-72
2023/01/16 06:44:08;;;;;;;10.37;7.17;;;;;;;;;;5117155;28;20182;-72
2023/01/16 06:46:33;;;;;;;3.23;2.07;;;;;;;;;;5116844;28;20272;-72
2023/01/16 06:48:59;;;;;;;2.50;1.70;;;;;;;;;;5116033;28;20232;-72
2023/01/16 06:51:25;;;;;;;5.43;1.60;;;;;;;;;;5115523;28;20263;-72
2023/01/16 06:53:51;;;;;;;2.37;1.40;;;;;;;;;;5115671;28;20180;-72
2023/01/16 06:56:17;;;;;;;4.03;1.47;;;;;;;;;;5115566;28;20184;-72
2023/01/16 06:58:44;;;;;;;1.63;1.30;;;;;;;;;;5115680;28;20192;-72
2023/01/16 07:01:10;;;;;;;4.67;1.67;;;;;;;;;;5115172;28;20261;-72
2023/01/16 07:03:36;;;;;;;2.37;1.73;;;;;;;;;;5113724;28;20263;-72
2023/01/16 07:06:02;;;;;;;2.80;1.60;;;;;;;;;;5115004;28;20177;-72
2023/01/16 07:08:28;;;;;;;3.73;1.40;;;;;;;;;;5114925;28;20249;-72
2023/01/16 07:10:54;;;;;;;4.63;1.57;;;;;;;;;;5114986;28;20176;-72
2023/01/16 07:13:26;;;;;;;1.77;1.30;;;;;;;;;;5114260;28;20180;-70
2023/01/16 07:24:04;;;;;;;3.03;1.53;;;;;;;;;;5115309;28;20558;-73
2023/01/16 07:26:31;;;;;;;3.60;1.97;;;;;;;;;;5113529;28;20181;-71
2023/01/16 07:28:58;;;;;;;2.80;1.83;;;;;;;;;;5114794;28;20292;-72
2023/01/16 07:31:24;;;;;;;6.83;2.90;;;;;;;;;;5113468;28;20670;-71
2023/01/16 07:33:50;;;;;;;11.97;8.07;;;;;;;;;;5156671;22;20231;-73
2023/01/16 07:36:18;;;;;;;25.80;16.03;;;;;;;;;;5116185;28;20202;-71
2023/01/16 07:38:44;;;;;;;39.40;24.40;;;;;;;;;;5115206;28;20240;-72
2023/01/16 07:41:10;;;;;;;27.17;17.23;;;;;;;;;;5116380;28;20228;-71
2023/01/16 07:43:36;;;;;;;9.47;6.50;;;;;;;;;;5116043;28;20560;-72
2023/01/16 07:46:01;;;;;;;3.53;2.17;;;;;;;;;;5114414;28;20210;-71
2023/01/16 07:48:28;;;;;;;53.90;6.93;;;;;;;;;;5116082;28;20172;-72
2023/01/16 07:50:56;;;;;;;2.07;1.13;;;;;;;;;;5115738;28;20173;-71
2023/01/16 07:53:22;;;;;;;7.50;2.50;;;;;;;;;;5115418;28;20188;-71
2023/01/16 07:55:49;;;;;;;47.23;7.77;;;;;;;;;;5116420;28;20649;-71
2023/01/16 07:58:15;;;;;;;24.17;5.60;;;;;;;;;;5116278;28;20656;-72
2023/01/16 08:00:41;;;;;;;5.63;2.80;;;;;;;;;;5115711;28;20200;-72
2023/01/16 08:03:07;;;;;;;15.13;3.50;;;;;;;;;;5115397;28;20665;-72
2023/01/16 08:05:33;;;;;;;4.20;1.87;;;;;;;;;;5115297;28;20562;-71
2023/01/16 08:07:59;;;;;;;4.27;1.93;;;;;;;;;;5115761;28;20217;-72
2023/01/16 08:10:25;;;;;;;4.37;2.63;;;;;;;;;;5114921;28;20241;-71
2023/01/16 08:12:51;;;;;;;13.33;3.80;;;;;;;;;;5114074;28;20203;-68
2023/01/16 08:15:17;;;;;;;7.20;2.67;;;;;;;;;;5115767;28;20176;-72
2023/01/16 08:17:43;;;;;;;7.53;2.87;;;;;;;;;;5115624;28;20226;-70
2023/01/16 08:20:10;;;;;;;7.77;2.80;;;;;;;;;;5114757;28;20557;-72
2023/01/16 08:22:41;;;;;;;6.23;2.20;;;;;;;;;;5115703;28;20203;-72
2023/01/16 08:25:07;;;;;;;4.30;1.93;;;;;;;;;;5114442;28;20169;-71
2023/01/16 08:27:34;;;;;;;3.23;1.90;;;;;;;;;;5114038;28;20176;-72
2023/01/16 08:30:00;;;;;;;5.50;1.80;;;;;;;;;;5114763;28;20184;-72
2023/01/16 08:32:26;;;;;;;4.70;2.03;;;;;;;;;;5115813;28;20547;-72
2023/01/16 08:34:52;;;;;;;4.03;1.53;;;;;;;;;;5114125;28;20249;-72
2023/01/16 08:37:18;;;;;;;2.00;1.60;;;;;;;;;;5115878;28;20172;-70
2023/01/16 08:39:44;;;;;;;1.73;1.57;;;;;;;;;;5115186;28;20208;-70
2023/01/16 08:53:08;;;;;;;5.27;1.57;;;;;;;;;;5119808;28;20226;-71
2023/01/16 08:55:34;;;;;;;2.93;1.50;;;;;;;;;;5119205;28;20176;-71
2023/01/16 08:58:00;;;;;;;5.63;1.70;;;;;;;;;;5119188;28;20172;-70
2023/01/16 09:00:27;;;;;;;3.13;1.70;;;;;;;;;;5119332;28;20200;-71
2023/01/16 09:02:55;;;;;;;4.80;1.87;;;;;;;;;;5118132;28;20200;-71
2023/01/16 09:05:21;;;;;;;4.87;1.93;;;;;;;;;;5118143;28;20212;-71
2023/01/16 09:07:47;;;;;;;4.63;1.57;;;;;;;;;;5119245;28;20177;-72
2023/01/16 09:10:13;;;;;;;4.43;1.40;;;;;;;;;;5117601;28;20236;-70
2023/01/16 09:15:24;;;;;;;4.90;1.67;;;;;;;;;;5119395;28;20229;-70
2023/01/16 09:17:50;;;;;;;5.63;1.97;;;;;;;;;;5117936;28;20180;-71
2023/01/16 09:20:16;;;;;;;3.97;1.83;;;;;;;;;;5117678;28;20180;-71
2023/01/16 09:22:42;;;;;;;2.00;1.70;;;;;;;;;;5118890;28;20200;-71
2023/01/16 09:25:08;;;;;;;3.30;1.50;;;;;;;;;;5118725;28;20248;-73
2023/01/16 09:27:34;;;;;;;2.73;1.50;;;;;;;;;;5117278;28;20180;-72
2023/01/16 09:30:00;;;;;;;3.27;1.70;;;;;;;;;;5118638;28;20172;-71
2023/01/16 09:32:26;;;;;;;3.70;1.60;;;;;;;;;;5118794;28;20181;-72
2023/01/16 09:34:52;;;;;;;5.13;1.90;;;;;;;;;;5117251;28;20219;-71
2023/01/16 09:37:18;;;;;;;2.83;1.50;;;;;;;;;;5117254;28;20180;-71
2023/01/16 09:39:44;;;;;;;3.77;1.40;;;;;;;;;;5118623;28;20180;-71
2023/01/16 09:45:21;;;;;;;3.57;1.40;;;;;;;;;;5118074;28;20184;-71
2023/01/16 09:47:50;;;;;;;3.73;1.10;;;;;;;;;;5118592;28;20183;-72
2023/01/16 09:50:16;;;;;;;1.13;1.00;;;;;;;;;;5118114;28;20176;-71
2023/01/16 09:58:37;;;;;;;5.43;1.20;;;;;;;;;;5118245;28;20649;-71
2023/01/16 10:01:24;;;;;;;1.93;1.60;;;;;;;;;;5119915;28;20234;-71
2023/01/16 10:03:50;;;;;;;2.57;1.30;;;;;;;;;;5118924;28;20245;-68
2023/01/16 10:06:32;;;;;;;1.73;1.23;;;;;;;;;;5117184;28;20169;-69
2023/01/16 10:09:04;;;;;;;1.97;1.20;;;;;;;;;;5117870;28;20172;-69
2023/01/16 10:11:40;;;;;;;2.13;1.50;;;;;;;;;;5117769;28;20547;-69
2023/01/16 10:14:06;;;;;;;3.93;1.37;;;;;;;;;;5117211;28;20198;-69
2023/01/16 10:16:31;;;;;;;1.97;1.10;;;;;;;;;;5115726;28;20177;-68
2023/01/16 10:19:06;;;;;;;2.97;1.60;;;;;;;;;;5117664;28;20203;-70
2023/01/16 10:21:32;;;;;;;1.60;1.40;;;;;;;;;;5117519;28;20566;-68
2023/01/16 10:24:21;;;;;;;4.13;1.50;;;;;;;;;;5122573;28;20200;-69
2023/01/16 10:26:57;;;;;;;2.10;1.60;;;;;;;;;;5100202;28;20233;-68
2023/01/16 10:29:30;;;;;;;4.37;1.40;;;;;;;;;;5127220;28;20152;-69
2023/01/16 10:32:08;;;;;;;3.97;1.53;;;;;;;;;;5120153;28;20180;-68
2023/01/16 10:34:37;;;;;;;3.60;1.23;;;;;;;;;;5115713;28;20230;-69
2023/01/16 10:37:05;;;;;;;7.00;1.77;;;;;;;;;;5117735;28;20219;-70
2023/01/16 10:39:32;;;;;;;4.23;1.70;;;;;;;;;;5115663;28;20237;-69
2023/01/16 10:50:34;;;;;;;3.50;1.40;;;;;;;;;;5116952;28;20542;-68
2023/01/16 10:53:00;;;;;;;1.30;1.20;;;;;;;;;;5115171;28;20287;-69
2023/01/16 10:55:26;;;;;;;1.40;1.30;;;;;;;;;;5116398;28;20208;-66
2023/01/16 10:57:54;;;;;;;2.20;1.30;;;;;;;;;;5116397;28;20243;-69
2023/01/16 11:00:28;;;;;;;1.53;1.03;;;;;;;;;;5114739;28;20196;-70
2023/01/16 11:02:57;;;;;;;1.57;1.27;;;;;;;;;;5115866;28;20240;-69
2023/01/16 11:05:25;;;;;;;2.20;1.40;;;;;;;;;;5116314;28;20178;-70
2023/01/16 11:07:54;;;;;;;1.27;1.17;;;;;;;;;;5114760;28;20199;-70
2023/01/16 11:10:21;;;;;;;2.20;1.20;;;;;;;;;;5115843;28;20172;-69
2023/01/16 11:18:29;;;;;;;1.30;1.20;;;;;;;;;;5116415;28;20233;-70
2023/01/16 11:21:00;;;;;;;1.27;1.10;;;;;;;;;;5116520;28;20191;-71
2023/01/16 11:23:28;;;;;;;1.50;1.40;;;;;;;;;;5114670;28;20200;-70
2023/01/16 11:25:56;;;;;;;2.30;1.20;;;;;;;;;;5114674;28;20669;-68
2023/01/16 11:28:30;;;;;;;1.70;1.10;;;;;;;;;;5114838;28;20180;-69
2023/01/16 11:31:17;;;;;;;2.33;1.67;;;;;;;;;;5115010;28;20297;-69
2023/01/16 11:33:48;;;;;;;1.27;1.17;;;;;;;;;;5103968;28;20280;-69
2023/01/16 11:36:17;;;;;;;3.10;2.33;;;;;;;;;;5115982;28;20632;-67
2023/01/16 11:38:44;;;;;;;5.27;3.60;;;;;;;;;;5115855;28;20176;-70
2023/01/16 11:41:10;;;;;;;1.77;1.40;;;;;;;;;;5114413;28;20204;-69
2023/01/16 11:46:31;;;;;;;53.43;27.63;;;;;;;;;;5115836;28;20174;-70
2023/01/16 11:49:01;;;;;;;12.27;7.20;;;;;;;;;;5116067;28;20310;-68
2023/01/16 11:51:32;;;;;;;2.57;2.20;;;;;;;;;;5114164;28;20176;-70
2023/01/16 11:53:59;;;;;;;1.70;1.10;;;;;;;;;;5114302;28;20291;-69
2023/01/16 11:56:25;;;;;;;1.30;1.17;;;;;;;;;;5114695;28;20594;-68
2023/01/16 11:58:56;;;;;;;1.20;1.10;;;;;;;;;;5115594;28;20591;-70
2023/01/16 12:01:22;;;;;;;1.80;1.20;;;;;;;;;;5114975;28;20214;-71
2023/01/16 12:04:13;;;;;;;2.37;1.20;;;;;;;;;;5115491;28;20203;-69
2023/01/16 12:06:44;;;;;;;2.27;1.70;;;;;;;;;;5113674;28;20168;-69
2023/01/16 12:09:20;;;;;;;4.20;3.10;;;;;;;;;;5115494;28;20633;-69
2023/01/16 12:14:17;;;;;;;9.67;7.23;;;;;;;;;;5116012;28;20538;-68
2023/01/16 12:14:55;;;;;;;2.00;1.73;;;;;;;;;;5115132;28;20265;-69
2023/01/16 12:17:29;;;;;;;1.23;1.10;;;;;;;;;;5115681;28;20169;-69
2023/01/16 12:20:00;;;;;;;2.47;1.10;;;;;;;;;;5114293;28;20182;-70
2023/01/16 12:22:44;;;;;;;1.17;1.17;;;;;;;;;;5115596;28;20279;-70
2023/01/16 12:25:22;;;;;;;1.00;0.90;;;;;;;;;;5122747;28;20179;-69
2023/01/16 12:27:56;;;;;;;1.20;1.10;;;;;;;;;;5122149;28;20188;-70
2023/01/16 12:30:25;;;;;;;1.93;1.17;;;;;;;;;;5121861;27;20582;-69
2023/01/16 12:32:51;;;;;;;3.00;1.20;;;;;;;;;;5121006;28;20214;-69
2023/01/16 12:35:23;;;;;;;1.97;1.07;;;;;;;;;;5120812;28;20176;-70
2023/01/16 12:37:57;;;;;;;3.63;1.17;;;;;;;;;;5121157;28;20538;-69
2023/01/16 12:40:36;;;;;;;1.20;1.10;;;;;;;;;;5120392;28;20164;-70
2023/01/16 12:43:18;;;;;;;3.53;1.40;;;;;;;;;;5121314;28;20192;-68
2023/01/16 12:45:50;;;;;;;1.80;1.30;;;;;;;;;;5120718;28;20168;-68
2023/01/16 12:48:35;;;;;;;3.13;1.33;;;;;;;;;;5121494;28;20169;-68
2023/01/16 12:51:04;;;;;;;1.33;1.10;;;;;;;;;;5120510;28;20229;-69
2023/01/16 12:53:39;;;;;;;1.73;1.40;;;;;;;;;;5119961;28;20227;-70
2023/01/16 12:56:17;;;;;;;2.50;1.20;;;;;;;;;;5121906;28;20195;-69
2023/01/16 12:58:46;;;;;;;1.10;1.10;;;;;;;;;;5120643;28;20176;-68
2023/01/16 13:01:31;;;;;;;1.20;1.10;;;;;;;;;;5122526;28;20204;-70
2023/01/16 13:03:57;;;;;;;1.73;1.20;;;;;;;;;;5120242;28;20200;-68
2023/01/16 13:06:29;;;;;;;1.60;1.50;;;;;;;;;;5120364;28;20172;-70
2023/01/16 13:09:08;;;;;;;2.00;1.40;;;;;;;;;;5121896;28;20178;-70
2023/01/16 13:14:23;;;;;;;1.80;1.20;;;;;;;;;;5122183;28;20279;-70
2023/01/16 13:16:59;;;;;;;1.53;1.20;;;;;;;;;;5120233;28;20180;-70
2023/01/16 13:19:27;;;;;;;2.47;1.30;;;;;;;;;;5122107;27;20160;-71
2023/01/16 13:21:53;;;;;;;2.50;1.33;;;;;;;;;;5119861;28;20240;-70
2023/01/16 13:24:23;;;;;;;1.37;1.23;;;;;;;;;;5120143;28;20249;-70
2023/01/16 13:26:53;;;;;;;2.63;1.37;;;;;;;;;;5120026;28;20602;-69
2023/01/16 13:29:24;;;;;;;1.60;1.50;;;;;;;;;;5120251;28;20192;-69
2023/01/16 13:31:53;;;;;;;3.50;1.40;;;;;;;;;;5121859;28;20173;-70
2023/01/16 13:34:33;;;;;;;1.67;1.57;;;;;;;;;;5120369;27;20652;-69
2023/01/16 13:37:05;;;;;;;1.03;1.00;;;;;;;;;;5116610;28;20276;-70
2023/01/16 13:39:37;;;;;;;1.17;1.07;;;;;;;;;;5118075;28;20189;-69
2023/01/16 13:42:05;;;;;;;1.10;1.00;;;;;;;;;;5117825;28;20734;-70
2023/01/16 13:47:22;;;;;;;1.73;1.13;;;;;;;;;;5118329;28;20168;-70
2023/01/16 13:49:55;;;;;;;1.97;1.37;;;;;;;;;;5117939;28;20172;-70
2023/01/16 13:52:28;;;;;;;1.20;1.10;;;;;;;;;;5116609;28;20208;-68
2023/01/16 13:54:55;;;;;;;1.40;1.30;;;;;;;;;;5117862;28;20255;-70
2023/01/16 13:57:23;;;;;;;3.43;1.83;;;;;;;;;;5118041;28;20580;-70
2023/01/16 13:59:51;;;;;;;2.77;1.10;;;;;;;;;;5117699;28;20176;-69
2023/01/16 14:02:36;;;;;;;1.50;1.20;;;;;;;;;;5117902;28;20567;-69
2023/01/16 14:05:21;;;;;;;2.27;1.70;;;;;;;;;;5117524;28;20218;-71
2023/01/16 14:10:58;;;;;;;1.83;1.50;;;;;;;;;;5117865;28;20218;-71
2023/01/16 14:13:26;;;;;;;1.30;1.20;;;;;;;;;;5117391;28;20376;-71
2023/01/16 14:18:40;;;;;;;2.40;2.10;;;;;;;;;;5118093;28;20210;-70
2023/01/16 14:21:20;;;;;;;3.80;3.10;;;;;;;;;;5118247;28;20204;-68
2023/01/16 14:24:02;;;;;;;6.50;5.90;;;;;;;;;;5116291;28;20200;-70
2023/01/16 14:26:31;;;;;;;4.37;3.67;;;;;;;;;;5118182;28;20183;-69
2023/01/16 14:28:58;;;;;;;8.60;7.23;;;;;;;;;;5116112;28;20556;-68
2023/01/16 14:31:27;;;;;;;6.63;4.80;;;;;;;;;;5115924;28;20214;-70
2023/01/16 14:33:55;;;;;;;7.17;6.47;;;;;;;;;;5116962;28;20218;-69
2023/01/16 14:36:23;;;;;;;2.53;2.33;;;;;;;;;;5116836;28;20208;-70
2023/01/16 14:38:49;;;;;;;3.90;3.30;;;;;;;;;;5116834;28;20578;-69
2023/01/16 14:55:22;;;;;;;37.50;23.30;;;;;;;;;;5116746;28;20545;-69
2023/01/16 14:57:48;;;;;;;3.53;3.03;;;;;;;;;;5115397;28;20180;-69
2023/01/16 15:00:18;;;;;;;37.00;25.70;;;;;;;;;;5117328;28;20222;-71
2023/01/16 15:02:47;;;;;;;15.03;9.33;;;;;;;;;;5115504;28;20200;-70
2023/01/16 15:05:14;;;;;;;5.97;3.60;;;;;;;;;;5116392;28;20213;-69
2023/01/16 15:07:56;;;;;;;6.70;5.10;;;;;;;;;;5115928;28;20168;-70
2023/01/16 15:10:25;;;;;;;21.90;18.53;;;;;;;;;;5116327;28;20255;-70
2023/01/16 15:12:51;;;;;;;4.07;2.87;;;;;;;;;;5115885;28;20180;-69
2023/01/16 15:15:25;;;;;;;3.80;3.00;;;;;;;;;;5114987;28;20172;-71
2023/01/16 15:23:27;;;;;;;2.87;2.20;;;;;;;;;;5116144;28;20207;-67
2023/01/16 15:26:05;;;;;;;2.30;1.53;;;;;;;;;;5116417;28;20177;-69
2023/01/16 15:28:43;;;;;;;1.93;1.40;;;;;;;;;;5116030;28;20549;-68
2023/01/16 15:31:17;;;;;;;2.13;1.90;;;;;;;;;;5114870;28;20211;-68
2023/01/16 15:33:51;;;;;;;4.53;4.03;;;;;;;;;;5114277;28;20223;-68
2023/01/16 15:36:20;;;;;;;3.87;3.57;;;;;;;;;;5116059;28;20149;-67
2023/01/16 15:38:47;;;;;;;2.23;2.03;;;;;;;;;;5116492;28;20168;-68
2023/01/16 15:41:13;;;;;;;3.23;2.50;;;;;;;;;;5116562;28;20196;-69
2023/01/16 15:46:47;;;;;;;2.83;1.60;;;;;;;;;;5122095;28;20195;-69
2023/01/16 15:49:19;;;;;;;1.43;1.30;;;;;;;;;;5121633;28;20650;-68
2023/01/16 15:51:51;;;;;;;3.27;2.87;;;;;;;;;;5120353;28;20172;-68
2023/01/16 15:54:18;;;;;;;2.50;1.80;;;;;;;;;;5114715;28;20196;-68
2023/01/16 15:56:44;;;;;;;3.40;2.53;;;;;;;;;;5115823;28;20176;-68
2023/01/16 15:59:43;;;;;;;1.90;1.80;;;;;;;;;;5114139;28;20181;-68
2023/01/16 16:02:16;;;;;;;2.90;1.70;;;;;;;;;;5081367;28;20612;-69
2023/01/16 16:04:42;;;;;;;4.63;2.10;;;;;;;;;;5114102;28;20256;-69
2023/01/16 16:07:08;;;;;;;4.83;3.67;;;;;;;;;;5115632;28;20180;-69
2023/01/16 16:09:35;;;;;;;2.63;2.17;;;;;;;;;;5115365;28;20180;-69
2023/01/16 16:12:04;;;;;;;4.90;4.30;;;;;;;;;;5115224;28;20645;-70
2023/01/16 16:20:25;;;;;;;4.73;2.97;;;;;;;;;;5115817;28;20594;-70
2023/01/16 16:22:51;;;;;;;3.03;2.70;;;;;;;;;;5115100;28;20207;-71
2023/01/16 16:25:22;;;;;;;4.10;3.40;;;;;;;;;;5115433;28;20247;-70
2023/01/16 16:27:48;;;;;;;16.73;10.23;;;;;;;;;;5114224;28;20271;-70